sensor_id;sensor_type;location;lat;lon;timestamp;P1;durP1;ratioP1;P2;durP2;ratioP2
51602;SDS011;37954;51.980;5.850;2023-09-19T00:01:02;3.05;;;1.75;;
51602;SDS011;37954;51.980;5.850;2023-09-19T00:05:14;4.45;;;1.55;;
51602;SDS011;37954;51.980;5.850;2023-09-19T00:09:27;6.15;;;1.83;;
51602;SDS011;37954;51.980;5.850;2023-09-19T00:13:39;5.03;;;1.38;;
51602;SDS011;37954;51.980;5.850;2023-09-19T00:17:51;3.15;;;1.58;;
51602;SDS011;37954;51.980;5.850;2023-09-19T00:22:06;4.22;;;2.03;;
51602;SDS011;37954;51.980;5.850;2023-09-19T00:26:18;4.57;;;1.80;;
51602;SDS011;37954;51.980;5.850;2023-09-19T00:30:33;8.70;;;2.47;;
51602;SDS011;37954;51.980;5.850;2023-09-19T00:34:46;5.55;;;2.40;;
51602;SDS011;37954;51.980;5.850;2023-09-19T00:38:58;10.27;;;2.50;;
51602;SDS011;37954;51.980;5.850;2023-09-19T00:43:10;7.95;;;2.92;;
51602;SDS011;37954;51.980;5.850;2023-09-19T00:47:22;5.63;;;2.20;;
51602;SDS011;37954;51.980;5.850;2023-09-19T00:51:34;8.50;;;2.47;;
51602;SDS011;37954;51.980;5.850;2023-09-19T00:55:47;4.45;;;2.10;;
51602;SDS011;37954;51.980;5.850;2023-09-19T01:00:01;6.25;;;1.92;;
51602;SDS011;37954;51.980;5.850;2023-09-19T01:04:18;4.97;;;2.03;;
51602;SDS011;37954;51.980;5.850;2023-09-19T01:08:30;7.80;;;2.05;;
51602;SDS011;37954;51.980;5.850;2023-09-19T01:17:27;5.28;;;2.30;;
51602;SDS011;37954;51.980;5.850;2023-09-19T01:30:58;9.98;;;2.42;;
51602;SDS011;37954;51.980;5.850;2023-09-19T01:35:14;7.43;;;2.22;;
51602;SDS011;37954;51.980;5.850;2023-09-19T01:39:26;6.60;;;2.60;;
51602;SDS011;37954;51.980;5.850;2023-09-19T01:43:40;8.45;;;2.70;;
51602;SDS011;37954;51.980;5.850;2023-09-19T01:47:54;11.10;;;2.40;;
51602;SDS011;37954;51.980;5.850;2023-09-19T01:52:14;6.82;;;2.20;;
51602;SDS011;37954;51.980;5.850;2023-09-19T01:56:36;11.95;;;3.08;;
51602;SDS011;37954;51.980;5.850;2023-09-19T02:00:54;6.60;;;2.80;;
51602;SDS011;37954;51.980;5.850;2023-09-19T02:05:07;4.38;;;1.92;;
51602;SDS011;37954;51.980;5.850;2023-09-19T02:09:19;8.32;;;2.75;;
51602;SDS011;37954;51.980;5.850;2023-09-19T02:13:30;3.85;;;2.17;;
51602;SDS011;37954;51.980;5.850;2023-09-19T02:17:43;5.68;;;2.22;;
51602;SDS011;37954;51.980;5.850;2023-09-19T02:21:55;5.50;;;2.05;;
51602;SDS011;37954;51.980;5.850;2023-09-19T02:26:07;3.97;;;2.15;;
51602;SDS011;37954;51.980;5.850;2023-09-19T02:30:19;5.80;;;2.65;;
51602;SDS011;37954;51.980;5.850;2023-09-19T02:34:34;5.00;;;2.38;;
51602;SDS011;37954;51.980;5.850;2023-09-19T02:38:47;7.00;;;2.35;;
51602;SDS011;37954;51.980;5.850;2023-09-19T02:42:59;10.00;;;2.42;;
51602;SDS011;37954;51.980;5.850;2023-09-19T02:47:11;6.05;;;2.33;;
51602;SDS011;37954;51.980;5.850;2023-09-19T02:51:23;8.57;;;2.65;;
51602;SDS011;37954;51.980;5.850;2023-09-19T02:55:34;7.38;;;2.45;;
51602;SDS011;37954;51.980;5.850;2023-09-19T02:59:46;10.45;;;2.42;;
51602;SDS011;37954;51.980;5.850;2023-09-19T03:03:58;4.20;;;2.08;;
51602;SDS011;37954;51.980;5.850;2023-09-19T03:08:11;6.03;;;2.15;;
51602;SDS011;37954;51.980;5.850;2023-09-19T03:12:23;7.90;;;2.72;;
51602;SDS011;37954;51.980;5.850;2023-09-19T03:16:35;9.20;;;2.58;;
51602;SDS011;37954;51.980;5.850;2023-09-19T03:20:55;10.65;;;2.65;;
51602;SDS011;37954;51.980;5.850;2023-09-19T03:25:07;8.68;;;2.13;;
51602;SDS011;37954;51.980;5.850;2023-09-19T03:29:22;5.95;;;2.40;;
51602;SDS011;37954;51.980;5.850;2023-09-19T03:33:34;11.30;;;2.20;;
51602;SDS011;37954;51.980;5.850;2023-09-19T03:37:47;7.57;;;2.63;;
51602;SDS011;37954;51.980;5.850;2023-09-19T03:41:59;7.28;;;2.65;;
51602;SDS011;37954;51.980;5.850;2023-09-19T03:46:11;11.82;;;2.50;;
51602;SDS011;37954;51.980;5.850;2023-09-19T03:50:25;5.40;;;1.88;;
51602;SDS011;37954;51.980;5.850;2023-09-19T03:54:38;10.60;;;2.47;;
51602;SDS011;37954;51.980;5.850;2023-09-19T03:58:52;9.13;;;2.33;;
51602;SDS011;37954;51.980;5.850;2023-09-19T04:03:05;8.70;;;2.42;;
51602;SDS011;37954;51.980;5.850;2023-09-19T04:07:18;11.27;;;2.20;;
51602;SDS011;37954;51.980;5.850;2023-09-19T04:11:34;5.28;;;2.00;;
51602;SDS011;37954;51.980;5.850;2023-09-19T04:15:46;5.47;;;2.22;;
51602;SDS011;37954;51.980;5.850;2023-09-19T04:19:58;8.27;;;2.13;;
51602;SDS011;37954;51.980;5.850;2023-09-19T04:24:10;7.65;;;2.20;;
51602;SDS011;37954;51.980;5.850;2023-09-19T04:28:21;5.80;;;2.60;;
51602;SDS011;37954;51.980;5.850;2023-09-19T04:32:33;5.65;;;2.30;;
51602;SDS011;37954;51.980;5.850;2023-09-19T04:36:47;12.10;;;2.40;;
51602;SDS011;37954;51.980;5.850;2023-09-19T04:40:59;9.82;;;2.55;;
51602;SDS011;37954;51.980;5.850;2023-09-19T04:45:10;4.95;;;1.98;;
51602;SDS011;37954;51.980;5.850;2023-09-19T04:49:22;7.75;;;2.20;;
51602;SDS011;37954;51.980;5.850;2023-09-19T04:53:34;4.78;;;2.08;;
51602;SDS011;37954;51.980;5.850;2023-09-19T04:57:46;8.55;;;2.28;;
51602;SDS011;37954;51.980;5.850;2023-09-19T05:01:59;6.88;;;2.33;;
51602;SDS011;37954;51.980;5.850;2023-09-19T05:19:13;5.97;;;2.15;;
51602;SDS011;37954;51.980;5.850;2023-09-19T05:23:24;4.00;;;2.00;;
51602;SDS011;37954;51.980;5.850;2023-09-19T05:27:37;6.45;;;2.40;;
51602;SDS011;37954;51.980;5.850;2023-09-19T05:31:49;14.55;;;2.40;;
51602;SDS011;37954;51.980;5.850;2023-09-19T05:36:01;7.60;;;2.33;;
51602;SDS011;37954;51.980;5.850;2023-09-19T05:40:13;8.20;;;2.50;;
51602;SDS011;37954;51.980;5.850;2023-09-19T05:44:25;8.02;;;2.55;;
51602;SDS011;37954;51.980;5.850;2023-09-19T05:48:37;5.43;;;1.90;;
51602;SDS011;37954;51.980;5.850;2023-09-19T05:52:51;4.25;;;1.88;;
51602;SDS011;37954;51.980;5.850;2023-09-19T05:57:05;9.80;;;2.35;;
51602;SDS011;37954;51.980;5.850;2023-09-19T06:01:17;7.50;;;2.30;;
51602;SDS011;37954;51.980;5.850;2023-09-19T06:05:29;7.47;;;2.35;;
51602;SDS011;37954;51.980;5.850;2023-09-19T06:09:44;8.27;;;2.15;;
51602;SDS011;37954;51.980;5.850;2023-09-19T06:13:56;4.47;;;2.15;;
51602;SDS011;37954;51.980;5.850;2023-09-19T06:18:10;8.52;;;2.50;;
51602;SDS011;37954;51.980;5.850;2023-09-19T06:22:26;6.25;;;2.03;;
51602;SDS011;37954;51.980;5.850;2023-09-19T06:26:38;5.57;;;2.25;;
51602;SDS011;37954;51.980;5.850;2023-09-19T06:30:50;5.90;;;2.53;;
51602;SDS011;37954;51.980;5.850;2023-09-19T06:35:01;4.43;;;2.03;;
51602;SDS011;37954;51.980;5.850;2023-09-19T06:39:18;9.95;;;2.22;;
51602;SDS011;37954;51.980;5.850;2023-09-19T06:43:33;4.72;;;2.20;;
51602;SDS011;37954;51.980;5.850;2023-09-19T06:47:46;5.22;;;1.90;;
51602;SDS011;37954;51.980;5.850;2023-09-19T06:52:02;11.95;;;2.70;;
51602;SDS011;37954;51.980;5.850;2023-09-19T06:56:15;6.35;;;2.17;;
51602;SDS011;37954;51.980;5.850;2023-09-19T07:00:26;10.85;;;2.58;;
51602;SDS011;37954;51.980;5.850;2023-09-19T07:04:40;7.93;;;2.20;;
51602;SDS011;37954;51.980;5.850;2023-09-19T07:08:52;5.10;;;2.10;;
51602;SDS011;37954;51.980;5.850;2023-09-19T07:13:04;6.68;;;2.05;;
51602;SDS011;37954;51.980;5.850;2023-09-19T07:17:28;3.72;;;2.17;;
51602;SDS011;37954;51.980;5.850;2023-09-19T07:21:41;6.55;;;2.50;;
51602;SDS011;37954;51.980;5.850;2023-09-19T07:25:56;7.90;;;2.53;;
51602;SDS011;37954;51.980;5.850;2023-09-19T07:30:10;10.52;;;2.38;;
51602;SDS011;37954;51.980;5.850;2023-09-19T07:34:23;7.65;;;1.88;;
51602;SDS011;37954;51.980;5.850;2023-09-19T07:38:35;7.63;;;2.25;;
51602;SDS011;37954;51.980;5.850;2023-09-19T07:42:47;5.72;;;2.53;;
51602;SDS011;37954;51.980;5.850;2023-09-19T07:46:59;6.22;;;2.60;;
51602;SDS011;37954;51.980;5.850;2023-09-19T07:51:12;10.68;;;2.33;;
51602;SDS011;37954;51.980;5.850;2023-09-19T07:55:27;8.82;;;2.45;;
51602;SDS011;37954;51.980;5.850;2023-09-19T07:59:40;6.00;;;2.30;;
51602;SDS011;37954;51.980;5.850;2023-09-19T08:03:53;5.88;;;2.10;;
51602;SDS011;37954;51.980;5.850;2023-09-19T08:08:05;11.85;;;2.95;;
51602;SDS011;37954;51.980;5.850;2023-09-19T08:12:18;5.13;;;2.65;;
51602;SDS011;37954;51.980;5.850;2023-09-19T08:16:31;9.32;;;2.50;;
51602;SDS011;37954;51.980;5.850;2023-09-19T08:20:48;9.55;;;2.85;;
51602;SDS011;37954;51.980;5.850;2023-09-19T08:25:02;7.95;;;2.53;;
51602;SDS011;37954;51.980;5.850;2023-09-19T08:29:17;6.57;;;2.55;;
51602;SDS011;37954;51.980;5.850;2023-09-19T08:33:29;7.75;;;2.47;;
51602;SDS011;37954;51.980;5.850;2023-09-19T08:37:42;7.50;;;2.70;;
51602;SDS011;37954;51.980;5.850;2023-09-19T08:42:00;6.05;;;2.50;;
51602;SDS011;37954;51.980;5.850;2023-09-19T08:46:14;4.90;;;2.38;;
51602;SDS011;37954;51.980;5.850;2023-09-19T08:50:27;5.07;;;2.38;;
51602;SDS011;37954;51.980;5.850;2023-09-19T08:54:40;5.97;;;2.55;;
51602;SDS011;37954;51.980;5.850;2023-09-19T08:58:57;9.50;;;2.30;;
51602;SDS011;37954;51.980;5.850;2023-09-19T09:03:12;6.22;;;2.45;;
51602;SDS011;37954;51.980;5.850;2023-09-19T09:07:30;8.75;;;2.30;;
51602;SDS011;37954;51.980;5.850;2023-09-19T09:11:47;8.30;;;2.72;;
51602;SDS011;37954;51.980;5.850;2023-09-19T09:15:59;7.70;;;2.50;;
51602;SDS011;37954;51.980;5.850;2023-09-19T09:20:11;5.53;;;2.33;;
51602;SDS011;37954;51.980;5.850;2023-09-19T09:24:29;6.72;;;2.33;;
51602;SDS011;37954;51.980;5.850;2023-09-19T09:28:45;4.63;;;2.10;;
51602;SDS011;37954;51.980;5.850;2023-09-19T09:33:11;4.40;;;2.47;;
51602;SDS011;37954;51.980;5.850;2023-09-19T09:37:26;4.03;;;2.25;;
51602;SDS011;37954;51.980;5.850;2023-09-19T09:41:42;4.97;;;2.00;;
51602;SDS011;37954;51.980;5.850;2023-09-19T09:50:35;5.57;;;2.28;;
51602;SDS011;37954;51.980;5.850;2023-09-19T09:55:02;6.90;;;2.85;;
51602;SDS011;37954;51.980;5.850;2023-09-19T09:59:17;6.50;;;2.47;;
51602;SDS011;37954;51.980;5.850;2023-09-19T10:03:36;3.97;;;2.13;;
51602;SDS011;37954;51.980;5.850;2023-09-19T10:07:55;2.25;;;1.80;;
51602;SDS011;37954;51.980;5.850;2023-09-19T10:12:12;5.63;;;2.60;;
51602;SDS011;37954;51.980;5.850;2023-09-19T10:16:29;6.93;;;2.80;;
51602;SDS011;37954;51.980;5.850;2023-09-19T10:20:47;4.47;;;2.20;;
51602;SDS011;37954;51.980;5.850;2023-09-19T10:25:00;5.28;;;2.22;;
51602;SDS011;37954;51.980;5.850;2023-09-19T10:29:15;5.82;;;2.70;;
51602;SDS011;37954;51.980;5.850;2023-09-19T10:33:28;5.80;;;2.17;;
51602;SDS011;37954;51.980;5.850;2023-09-19T10:37:47;4.97;;;2.47;;
51602;SDS011;37954;51.980;5.850;2023-09-19T10:42:02;7.25;;;2.35;;
51602;SDS011;37954;51.980;5.850;2023-09-19T10:46:17;9.43;;;2.38;;
51602;SDS011;37954;51.980;5.850;2023-09-19T10:50:36;3.45;;;2.08;;
51602;SDS011;37954;51.980;5.850;2023-09-19T10:54:53;5.35;;;2.47;;
51602;SDS011;37954;51.980;5.850;2023-09-19T10:59:09;3.08;;;1.85;;
51602;SDS011;37954;51.980;5.850;2023-09-19T11:03:25;3.90;;;2.55;;
51602;SDS011;37954;51.980;5.850;2023-09-19T11:07:57;9.75;;;2.30;;
51602;SDS011;37954;51.980;5.850;2023-09-19T11:12:12;4.15;;;1.77;;
51602;SDS011;37954;51.980;5.850;2023-09-19T11:25:41;4.65;;;2.28;;
51602;SDS011;37954;51.980;5.850;2023-09-19T11:38:58;5.00;;;1.95;;
51602;SDS011;37954;51.980;5.850;2023-09-19T11:43:28;4.35;;;1.80;;
51602;SDS011;37954;51.980;5.850;2023-09-19T11:47:42;4.60;;;2.22;;
51602;SDS011;37954;51.980;5.850;2023-09-19T11:51:57;5.70;;;2.30;;
51602;SDS011;37954;51.980;5.850;2023-09-19T11:56:18;8.18;;;2.50;;
51602;SDS011;37954;51.980;5.850;2023-09-19T12:00:32;4.70;;;1.98;;
51602;SDS011;37954;51.980;5.850;2023-09-19T12:04:45;3.10;;;1.58;;
51602;SDS011;37954;51.980;5.850;2023-09-19T12:08:59;3.45;;;1.83;;
51602;SDS011;37954;51.980;5.850;2023-09-19T12:13:15;3.92;;;1.85;;
51602;SDS011;37954;51.980;5.850;2023-09-19T12:17:37;3.60;;;1.88;;
51602;SDS011;37954;51.980;5.850;2023-09-19T12:22:00;3.83;;;1.70;;
51602;SDS011;37954;51.980;5.850;2023-09-19T12:26:16;4.47;;;1.67;;
51602;SDS011;37954;51.980;5.850;2023-09-19T12:30:28;6.40;;;1.92;;
51602;SDS011;37954;51.980;5.850;2023-09-19T12:34:50;3.25;;;1.67;;
51602;SDS011;37954;51.980;5.850;2023-09-19T12:39:04;7.32;;;2.13;;
51602;SDS011;37954;51.980;5.850;2023-09-19T12:43:20;2.72;;;1.55;;
51602;SDS011;37954;51.980;5.850;2023-09-19T12:47:33;3.72;;;1.70;;
51602;SDS011;37954;51.980;5.850;2023-09-19T12:51:46;4.47;;;1.40;;
51602;SDS011;37954;51.980;5.850;2023-09-19T12:55:59;2.83;;;1.30;;
51602;SDS011;37954;51.980;5.850;2023-09-19T13:00:11;2.42;;;1.45;;
51602;SDS011;37954;51.980;5.850;2023-09-19T13:04:23;1.90;;;1.00;;
51602;SDS011;37954;51.980;5.850;2023-09-19T13:08:40;1.10;;;1.00;;
51602;SDS011;37954;51.980;5.850;2023-09-19T13:12:55;4.20;;;1.40;;
51602;SDS011;37954;51.980;5.850;2023-09-19T13:17:42;4.35;;;1.60;;
51602;SDS011;37954;51.980;5.850;2023-09-19T13:21:54;2.47;;;1.27;;
51602;SDS011;37954;51.980;5.850;2023-09-19T13:26:09;8.10;;;1.70;;
51602;SDS011;37954;51.980;5.850;2023-09-19T13:30:31;4.30;;;1.27;;
51602;SDS011;37954;51.980;5.850;2023-09-19T13:34:45;3.90;;;1.20;;
51602;SDS011;37954;51.980;5.850;2023-09-19T13:38:57;6.28;;;1.40;;
51602;SDS011;37954;51.980;5.850;2023-09-19T13:43:09;4.68;;;1.23;;
51602;SDS011;37954;51.980;5.850;2023-09-19T13:47:22;4.20;;;1.13;;
51602;SDS011;37954;51.980;5.850;2023-09-19T13:51:36;6.15;;;1.58;;
51602;SDS011;37954;51.980;5.850;2023-09-19T13:55:47;1.85;;;1.10;;
51602;SDS011;37954;51.980;5.850;2023-09-19T14:00:02;3.78;;;1.20;;
51602;SDS011;37954;51.980;5.850;2023-09-19T14:04:22;1.20;;;1.05;;
51602;SDS011;37954;51.980;5.850;2023-09-19T14:08:34;8.98;;;1.02;;
51602;SDS011;37954;51.980;5.850;2023-09-19T14:12:45;1.90;;;1.15;;
51602;SDS011;37954;51.980;5.850;2023-09-19T14:16:57;1.95;;;1.02;;
51602;SDS011;37954;51.980;5.850;2023-09-19T14:21:12;2.05;;;1.20;;
51602;SDS011;37954;51.980;5.850;2023-09-19T14:25:24;4.38;;;1.40;;
51602;SDS011;37954;51.980;5.850;2023-09-19T14:29:43;4.05;;;1.15;;
51602;SDS011;37954;51.980;5.850;2023-09-19T14:33:56;3.15;;;1.35;;
51602;SDS011;37954;51.980;5.850;2023-09-19T14:38:08;2.22;;;1.30;;
51602;SDS011;37954;51.980;5.850;2023-09-19T14:42:20;3.97;;;1.70;;
51602;SDS011;37954;51.980;5.850;2023-09-19T14:46:31;3.15;;;1.25;;
51602;SDS011;37954;51.980;5.850;2023-09-19T14:50:43;2.28;;;1.52;;
51602;SDS011;37954;51.980;5.850;2023-09-19T14:54:55;3.15;;;1.30;;
51602;SDS011;37954;51.980;5.850;2023-09-19T14:59:07;4.85;;;1.48;;
51602;SDS011;37954;51.980;5.850;2023-09-19T15:03:22;3.33;;;1.38;;
51602;SDS011;37954;51.980;5.850;2023-09-19T15:07:35;7.55;;;1.58;;
51602;SDS011;37954;51.980;5.850;2023-09-19T15:11:48;2.38;;;1.25;;
51602;SDS011;37954;51.980;5.850;2023-09-19T15:16:00;2.05;;;1.45;;
51602;SDS011;37954;51.980;5.850;2023-09-19T15:20:16;3.30;;;1.20;;
51602;SDS011;37954;51.980;5.850;2023-09-19T15:24:29;5.03;;;1.40;;
51602;SDS011;37954;51.980;5.850;2023-09-19T15:28:41;2.38;;;1.35;;
51602;SDS011;37954;51.980;5.850;2023-09-19T15:32:53;2.70;;;1.92;;
51602;SDS011;37954;51.980;5.850;2023-09-19T15:37:05;8.05;;;1.50;;
51602;SDS011;37954;51.980;5.850;2023-09-19T15:41:17;1.55;;;1.20;;
51602;SDS011;37954;51.980;5.850;2023-09-19T15:45:29;1.67;;;1.30;;
51602;SDS011;37954;51.980;5.850;2023-09-19T15:49:40;1.67;;;1.25;;
51602;SDS011;37954;51.980;5.850;2023-09-19T15:53:52;1.63;;;1.30;;
51602;SDS011;37954;51.980;5.850;2023-09-19T15:58:07;2.30;;;1.40;;
51602;SDS011;37954;51.980;5.850;2023-09-19T16:02:19;3.47;;;1.40;;
51602;SDS011;37954;51.980;5.850;2023-09-19T16:06:31;4.75;;;1.55;;
51602;SDS011;37954;51.980;5.850;2023-09-19T16:10:42;5.22;;;2.08;;
51602;SDS011;37954;51.980;5.850;2023-09-19T16:14:55;2.17;;;1.33;;
51602;SDS011;37954;51.980;5.850;2023-09-19T16:19:07;2.42;;;1.48;;
51602;SDS011;37954;51.980;5.850;2023-09-19T16:23:22;4.20;;;1.35;;
51602;SDS011;37954;51.980;5.850;2023-09-19T16:27:34;2.83;;;1.45;;
51602;SDS011;37954;51.980;5.850;2023-09-19T16:31:47;8.50;;;1.52;;
51602;SDS011;37954;51.980;5.850;2023-09-19T16:35:59;4.20;;;1.80;;
51602;SDS011;37954;51.980;5.850;2023-09-19T16:40:11;3.65;;;1.50;;
51602;SDS011;37954;51.980;5.850;2023-09-19T16:44:23;5.45;;;1.55;;
51602;SDS011;37954;51.980;5.850;2023-09-19T16:48:35;2.05;;;1.45;;
51602;SDS011;37954;51.980;5.850;2023-09-19T16:53:07;4.70;;;1.90;;
51602;SDS011;37954;51.980;5.850;2023-09-19T16:57:21;2.95;;;1.52;;
51602;SDS011;37954;51.980;5.850;2023-09-19T17:01:33;3.00;;;1.50;;
51602;SDS011;37954;51.980;5.850;2023-09-19T17:05:47;3.28;;;1.30;;
51602;SDS011;37954;51.980;5.850;2023-09-19T17:09:58;5.18;;;1.52;;
51602;SDS011;37954;51.980;5.850;2023-09-19T17:14:11;2.30;;;1.55;;
51602;SDS011;37954;51.980;5.850;2023-09-19T17:18:23;3.42;;;1.65;;
51602;SDS011;37954;51.980;5.850;2023-09-19T17:22:37;3.72;;;1.83;;
51602;SDS011;37954;51.980;5.850;2023-09-19T17:26:49;5.20;;;1.48;;
51602;SDS011;37954;51.980;5.850;2023-09-19T17:31:01;2.78;;;1.52;;
51602;SDS011;37954;51.980;5.850;2023-09-19T17:35:15;2.25;;;1.50;;
51602;SDS011;37954;51.980;5.850;2023-09-19T17:39:29;2.03;;;1.52;;
51602;SDS011;37954;51.980;5.850;2023-09-19T17:43:45;2.20;;;1.50;;
51602;SDS011;37954;51.980;5.850;2023-09-19T17:47:59;4.28;;;1.98;;
51602;SDS011;37954;51.980;5.850;2023-09-19T17:52:11;2.45;;;1.48;;
51602;SDS011;37954;51.980;5.850;2023-09-19T17:56:22;4.25;;;2.00;;
51602;SDS011;37954;51.980;5.850;2023-09-19T18:00:35;2.97;;;1.70;;
51602;SDS011;37954;51.980;5.850;2023-09-19T18:04:48;2.25;;;1.52;;
51602;SDS011;37954;51.980;5.850;2023-09-19T18:09:01;7.97;;;1.85;;
51602;SDS011;37954;51.980;5.850;2023-09-19T18:13:18;3.35;;;1.77;;
51602;SDS011;37954;51.980;5.850;2023-09-19T18:17:31;7.20;;;1.92;;
51602;SDS011;37954;51.980;5.850;2023-09-19T18:21:43;3.75;;;1.70;;
51602;SDS011;37954;51.980;5.850;2023-09-19T18:26:01;4.85;;;1.40;;
51602;SDS011;37954;51.980;5.850;2023-09-19T18:30:13;4.32;;;1.88;;
51602;SDS011;37954;51.980;5.850;2023-09-19T18:34:25;6.00;;;2.03;;
51602;SDS011;37954;51.980;5.850;2023-09-19T18:38:38;2.58;;;1.50;;
51602;SDS011;37954;51.980;5.850;2023-09-19T18:42:52;5.15;;;2.00;;
51602;SDS011;37954;51.980;5.850;2023-09-19T18:47:04;2.40;;;1.55;;
51602;SDS011;37954;51.980;5.850;2023-09-19T18:51:16;4.95;;;1.70;;
51602;SDS011;37954;51.980;5.850;2023-09-19T18:55:30;4.10;;;1.73;;
51602;SDS011;37954;51.980;5.850;2023-09-19T18:59:43;2.78;;;1.45;;
51602;SDS011;37954;51.980;5.850;2023-09-19T19:03:55;6.13;;;2.03;;
51602;SDS011;37954;51.980;5.850;2023-09-19T19:08:07;4.50;;;1.70;;
51602;SDS011;37954;51.980;5.850;2023-09-19T19:12:19;3.15;;;1.80;;
51602;SDS011;37954;51.980;5.850;2023-09-19T19:16:31;3.28;;;1.90;;
51602;SDS011;37954;51.980;5.850;2023-09-19T19:20:43;5.80;;;2.13;;
51602;SDS011;37954;51.980;5.850;2023-09-19T19:24:55;5.88;;;1.55;;
51602;SDS011;37954;51.980;5.850;2023-09-19T19:29:08;4.70;;;1.95;;
51602;SDS011;37954;51.980;5.850;2023-09-19T19:33:19;2.47;;;1.90;;
51602;SDS011;37954;51.980;5.850;2023-09-19T19:37:33;4.35;;;1.80;;
51602;SDS011;37954;51.980;5.850;2023-09-19T19:41:45;3.38;;;2.03;;
51602;SDS011;37954;51.980;5.850;2023-09-19T19:45:57;4.78;;;1.90;;
51602;SDS011;37954;51.980;5.850;2023-09-19T19:50:10;3.38;;;1.75;;
51602;SDS011;37954;51.980;5.850;2023-09-19T19:54:22;5.38;;;1.65;;
51602;SDS011;37954;51.980;5.850;2023-09-19T19:58:34;5.80;;;1.75;;
51602;SDS011;37954;51.980;5.850;2023-09-19T20:02:50;3.40;;;1.90;;
51602;SDS011;37954;51.980;5.850;2023-09-19T20:07:02;4.88;;;1.85;;
51602;SDS011;37954;51.980;5.850;2023-09-19T20:11:15;5.97;;;1.63;;
51602;SDS011;37954;51.980;5.850;2023-09-19T20:15:26;4.60;;;2.03;;
51602;SDS011;37954;51.980;5.850;2023-09-19T20:19:41;2.08;;;1.80;;
51602;SDS011;37954;51.980;5.850;2023-09-19T20:23:53;2.45;;;2.05;;
51602;SDS011;37954;51.980;5.850;2023-09-19T20:28:05;3.40;;;1.80;;
51602;SDS011;37954;51.980;5.850;2023-09-19T20:32:18;4.32;;;1.95;;
51602;SDS011;37954;51.980;5.850;2023-09-19T20:36:30;5.30;;;2.15;;
51602;SDS011;37954;51.980;5.850;2023-09-19T20:40:43;5.85;;;1.90;;
51602;SDS011;37954;51.980;5.850;2023-09-19T20:44:55;8.02;;;2.05;;
51602;SDS011;37954;51.980;5.850;2023-09-19T20:49:08;2.75;;;1.90;;
51602;SDS011;37954;51.980;5.850;2023-09-19T20:53:20;4.05;;;1.80;;
51602;SDS011;37954;51.980;5.850;2023-09-19T20:57:32;2.78;;;1.63;;
51602;SDS011;37954;51.980;5.850;2023-09-19T21:01:44;3.45;;;1.88;;
51602;SDS011;37954;51.980;5.850;2023-09-19T21:06:01;2.70;;;1.70;;
51602;SDS011;37954;51.980;5.850;2023-09-19T21:10:16;2.83;;;1.92;;
51602;SDS011;37954;51.980;5.850;2023-09-19T21:14:29;3.53;;;2.03;;
51602;SDS011;37954;51.980;5.850;2023-09-19T21:18:46;4.63;;;1.95;;
51602;SDS011;37954;51.980;5.850;2023-09-19T21:23:00;5.13;;;2.08;;
51602;SDS011;37954;51.980;5.850;2023-09-19T21:27:11;4.88;;;2.00;;
51602;SDS011;37954;51.980;5.850;2023-09-19T21:31:24;4.90;;;1.90;;
51602;SDS011;37954;51.980;5.850;2023-09-19T21:35:43;2.83;;;2.10;;
51602;SDS011;37954;51.980;5.850;2023-09-19T21:39:55;3.40;;;2.03;;
51602;SDS011;37954;51.980;5.850;2023-09-19T21:44:07;3.75;;;2.22;;
51602;SDS011;37954;51.980;5.850;2023-09-19T21:48:19;2.97;;;2.00;;
51602;SDS011;37954;51.980;5.850;2023-09-19T21:52:32;6.28;;;1.75;;
51602;SDS011;37954;51.980;5.850;2023-09-19T21:56:45;4.78;;;2.00;;
51602;SDS011;37954;51.980;5.850;2023-09-19T22:00:59;5.00;;;2.45;;
51602;SDS011;37954;51.980;5.850;2023-09-19T22:05:14;8.48;;;2.38;;
51602;SDS011;37954;51.980;5.850;2023-09-19T22:09:26;4.38;;;2.20;;
51602;SDS011;37954;51.980;5.850;2023-09-19T22:13:40;4.15;;;1.95;;
51602;SDS011;37954;51.980;5.850;2023-09-19T22:17:55;5.22;;;2.10;;
51602;SDS011;37954;51.980;5.850;2023-09-19T22:22:09;2.53;;;2.05;;
51602;SDS011;37954;51.980;5.850;2023-09-19T22:26:23;6.95;;;1.90;;
51602;SDS011;37954;51.980;5.850;2023-09-19T22:30:36;3.85;;;1.70;;
51602;SDS011;37954;51.980;5.850;2023-09-19T22:34:52;3.67;;;2.13;;
51602;SDS011;37954;51.980;5.850;2023-09-19T22:39:04;1.80;;;1.70;;
51602;SDS011;37954;51.980;5.850;2023-09-19T22:43:25;6.07;;;2.15;;
51602;SDS011;37954;51.980;5.850;2023-09-19T22:47:43;3.75;;;2.13;;
51602;SDS011;37954;51.980;5.850;2023-09-19T22:51:55;5.40;;;2.13;;
51602;SDS011;37954;51.980;5.850;2023-09-19T22:56:11;2.72;;;1.95;;
51602;SDS011;37954;51.980;5.850;2023-09-19T23:00:24;4.55;;;2.20;;
51602;SDS011;37954;51.980;5.850;2023-09-19T23:04:38;3.85;;;2.22;;
51602;SDS011;37954;51.980;5.850;2023-09-19T23:08:50;10.85;;;2.28;;
51602;SDS011;37954;51.980;5.850;2023-09-19T23:13:05;4.80;;;2.08;;
51602;SDS011;37954;51.980;5.850;2023-09-19T23:17:20;4.80;;;1.95;;
51602;SDS011;37954;51.980;5.850;2023-09-19T23:21:34;3.22;;;2.03;;
51602;SDS011;37954;51.980;5.850;2023-09-19T23:25:50;6.10;;;2.33;;
51602;SDS011;37954;51.980;5.850;2023-09-19T23:30:04;4.68;;;2.30;;
51602;SDS011;37954;51.980;5.850;2023-09-19T23:34:19;6.75;;;2.10;;
51602;SDS011;37954;51.980;5.850;2023-09-19T23:38:31;3.72;;;2.08;;
51602;SDS011;37954;51.980;5.850;2023-09-19T23:42:44;3.85;;;1.98;;
51602;SDS011;37954;51.980;5.850;2023-09-19T23:46:56;3.78;;;1.95;;
51602;SDS011;37954;51.980;5.850;2023-09-19T23:51:08;4.38;;;2.17;;
51602;SDS011;37954;51.980;5.850;2023-09-19T23:55:21;5.15;;;2.13;;
51602;SDS011;37954;51.980;5.850;2023-09-19T23:59:35;5.72;;;2.20;;
